sensor_id;sensor_type;location;lat;lon;timestamp;temperature;humidity
32787;DHT22;19139;49.372;8.580;2024-01-30T00:00:02;2.70;99.90
32787;DHT22;19139;49.372;8.580;2024-01-30T00:02:31;2.70;99.90
32787;DHT22;19139;49.372;8.580;2024-01-30T00:04:58;2.60;99.90
32787;DHT22;19139;49.372;8.580;2024-01-30T00:07:25;2.70;99.90
32787;DHT22;19139;49.372;8.580;2024-01-30T00:09:52;2.60;99.90
32787;DHT22;19139;49.372;8.580;2024-01-30T00:12:18;2.50;99.90
32787;DHT22;19139;49.372;8.580;2024-01-30T00:14:45;2.60;99.90
32787;DHT22;19139;49.372;8.580;2024-01-30T00:17:12;2.60;99.90
32787;DHT22;19139;49.372;8.580;2024-01-30T00:19:39;2.50;99.90
32787;DHT22;19139;49.372;8.580;2024-01-30T00:22:05;2.50;99.90
32787;DHT22;19139;49.372;8.580;2024-01-30T00:24:33;2.60;99.90
32787;DHT22;19139;49.372;8.580;2024-01-30T00:27:00;2.60;99.90
32787;DHT22;19139;49.372;8.580;2024-01-30T00:29:26;2.70;99.90
32787;DHT22;19139;49.372;8.580;2024-01-30T00:31:57;2.70;99.90
32787;DHT22;19139;49.372;8.580;2024-01-30T00:34:23;2.70;99.90
32787;DHT22;19139;49.372;8.580;2024-01-30T00:36:50;2.60;99.90
32787;DHT22;19139;49.372;8.580;2024-01-30T00:39:17;2.70;99.90
32787;DHT22;19139;49.372;8.580;2024-01-30T00:41:46;2.60;99.90
32787;DHT22;19139;49.372;8.580;2024-01-30T00:44:13;2.80;99.90
32787;DHT22;19139;49.372;8.580;2024-01-30T00:46:39;2.70;99.90
32787;DHT22;19139;49.372;8.580;2024-01-30T00:49:06;2.60;99.90
32787;DHT22;19139;49.372;8.580;2024-01-30T00:51:33;2.60;99.90
32787;DHT22;19139;49.372;8.580;2024-01-30T00:54:00;2.60;99.90
32787;DHT22;19139;49.372;8.580;2024-01-30T00:56:27;2.40;99.90
32787;DHT22;19139;49.372;8.580;2024-01-30T00:58:53;2.50;99.90
32787;DHT22;19139;49.372;8.580;2024-01-30T01:01:20;2.50;99.90
32787;DHT22;19139;49.372;8.580;2024-01-30T01:03:47;2.40;99.90
32787;DHT22;19139;49.372;8.580;2024-01-30T01:06:15;2.50;99.90
32787;DHT22;19139;49.372;8.580;2024-01-30T01:08:42;2.40;99.90
32787;DHT22;19139;49.372;8.580;2024-01-30T01:11:09;2.40;99.90
32787;DHT22;19139;49.372;8.580;2024-01-30T01:13:36;2.40;99.90
32787;DHT22;19139;49.372;8.580;2024-01-30T01:16:03;2.40;99.90
32787;DHT22;19139;49.372;8.580;2024-01-30T01:18:30;2.40;99.90
32787;DHT22;19139;49.372;8.580;2024-01-30T01:20:57;2.30;99.90
32787;DHT22;19139;49.372;8.580;2024-01-30T01:23:24;2.40;99.90
32787;DHT22;19139;49.372;8.580;2024-01-30T01:25:50;2.30;99.90
32787;DHT22;19139;49.372;8.580;2024-01-30T01:28:17;2.30;99.90
32787;DHT22;19139;49.372;8.580;2024-01-30T01:30:44;2.30;99.90
32787;DHT22;19139;49.372;8.580;2024-01-30T01:33:11;2.30;99.90
32787;DHT22;19139;49.372;8.580;2024-01-30T01:35:41;2.20;99.90
32787;DHT22;19139;49.372;8.580;2024-01-30T01:38:07;2.20;99.90
32787;DHT22;19139;49.372;8.580;2024-01-30T01:40:34;2.20;99.90
32787;DHT22;19139;49.372;8.580;2024-01-30T01:43:03;2.20;99.90
32787;DHT22;19139;49.372;8.580;2024-01-30T01:45:31;2.20;99.90
32787;DHT22;19139;49.372;8.580;2024-01-30T01:47:58;2.10;99.90
32787;DHT22;19139;49.372;8.580;2024-01-30T01:50:25;2.10;99.90
32787;DHT22;19139;49.372;8.580;2024-01-30T01:52:53;2.10;99.90
32787;DHT22;19139;49.372;8.580;2024-01-30T01:55:21;2.20;99.90
32787;DHT22;19139;49.372;8.580;2024-01-30T01:57:53;2.20;99.90
32787;DHT22;19139;49.372;8.580;2024-01-30T02:00:21;2.30;99.90
32787;DHT22;19139;49.372;8.580;2024-01-30T02:02:49;2.60;99.90
32787;DHT22;19139;49.372;8.580;2024-01-30T02:05:17;2.80;99.90
32787;DHT22;19139;49.372;8.580;2024-01-30T02:07:44;3.00;99.90
32787;DHT22;19139;49.372;8.580;2024-01-30T02:10:11;3.00;99.90
32787;DHT22;19139;49.372;8.580;2024-01-30T02:12:38;3.10;99.90
32787;DHT22;19139;49.372;8.580;2024-01-30T02:15:05;3.30;99.90
32787;DHT22;19139;49.372;8.580;2024-01-30T02:17:33;3.20;99.90
32787;DHT22;19139;49.372;8.580;2024-01-30T02:20:01;3.20;99.90
32787;DHT22;19139;49.372;8.580;2024-01-30T02:22:28;3.30;99.90
32787;DHT22;19139;49.372;8.580;2024-01-30T02:24:55;3.30;99.90
32787;DHT22;19139;49.372;8.580;2024-01-30T02:27:22;3.20;99.90
32787;DHT22;19139;49.372;8.580;2024-01-30T02:29:49;3.20;99.90
32787;DHT22;19139;49.372;8.580;2024-01-30T02:32:15;3.10;99.90
32787;DHT22;19139;49.372;8.580;2024-01-30T02:34:42;3.10;99.90
32787;DHT22;19139;49.372;8.580;2024-01-30T02:37:09;3.30;99.90
32787;DHT22;19139;49.372;8.580;2024-01-30T02:39:36;3.30;99.90
32787;DHT22;19139;49.372;8.580;2024-01-30T02:42:03;3.20;99.90
32787;DHT22;19139;49.372;8.580;2024-01-30T02:44:29;3.10;99.90
32787;DHT22;19139;49.372;8.580;2024-01-30T02:46:56;3.00;99.90
32787;DHT22;19139;49.372;8.580;2024-01-30T02:49:23;2.90;99.90
32787;DHT22;19139;49.372;8.580;2024-01-30T02:51:54;2.90;99.90
32787;DHT22;19139;49.372;8.580;2024-01-30T02:54:21;2.80;99.90
32787;DHT22;19139;49.372;8.580;2024-01-30T02:56:47;2.80;99.90
32787;DHT22;19139;49.372;8.580;2024-01-30T02:59:15;2.80;99.90
32787;DHT22;19139;49.372;8.580;2024-01-30T03:01:45;2.80;99.90
32787;DHT22;19139;49.372;8.580;2024-01-30T03:04:13;2.80;99.90
32787;DHT22;19139;49.372;8.580;2024-01-30T03:06:45;2.80;99.90
32787;DHT22;19139;49.372;8.580;2024-01-30T03:09:12;2.80;99.90
32787;DHT22;19139;49.372;8.580;2024-01-30T03:11:40;3.00;99.90
32787;DHT22;19139;49.372;8.580;2024-01-30T03:14:06;2.90;99.90
32787;DHT22;19139;49.372;8.580;2024-01-30T03:16:34;2.80;99.90
32787;DHT22;19139;49.372;8.580;2024-01-30T03:19:01;3.00;99.90
32787;DHT22;19139;49.372;8.580;2024-01-30T03:21:30;3.00;99.90
32787;DHT22;19139;49.372;8.580;2024-01-30T03:23:57;3.00;99.90
32787;DHT22;19139;49.372;8.580;2024-01-30T03:26:23;3.10;99.90
32787;DHT22;19139;49.372;8.580;2024-01-30T03:28:50;3.00;99.90
32787;DHT22;19139;49.372;8.580;2024-01-30T03:31:17;3.00;99.90
32787;DHT22;19139;49.372;8.580;2024-01-30T03:33:44;3.00;99.90
32787;DHT22;19139;49.372;8.580;2024-01-30T03:36:14;3.20;99.90
32787;DHT22;19139;49.372;8.580;2024-01-30T03:38:41;3.10;99.90
32787;DHT22;19139;49.372;8.580;2024-01-30T03:41:08;3.00;99.90
32787;DHT22;19139;49.372;8.580;2024-01-30T03:43:38;3.00;99.90
32787;DHT22;19139;49.372;8.580;2024-01-30T03:46:05;3.00;99.90
32787;DHT22;19139;49.372;8.580;2024-01-30T03:48:32;3.00;99.90
32787;DHT22;19139;49.372;8.580;2024-01-30T03:50:58;3.00;99.90
32787;DHT22;19139;49.372;8.580;2024-01-30T03:53:25;3.00;99.90
32787;DHT22;19139;49.372;8.580;2024-01-30T03:55:52;3.10;99.90
32787;DHT22;19139;49.372;8.580;2024-01-30T03:58:19;2.90;99.90
32787;DHT22;19139;49.372;8.580;2024-01-30T04:00:45;3.00;99.90
32787;DHT22;19139;49.372;8.580;2024-01-30T04:03:12;2.90;99.90
32787;DHT22;19139;49.372;8.580;2024-01-30T04:05:40;2.80;99.90
32787;DHT22;19139;49.372;8.580;2024-01-30T04:08:07;2.80;99.90
32787;DHT22;19139;49.372;8.580;2024-01-30T04:10:34;2.80;99.90
32787;DHT22;19139;49.372;8.580;2024-01-30T04:13:01;2.70;99.90
32787;DHT22;19139;49.372;8.580;2024-01-30T04:15:28;2.70;99.90
32787;DHT22;19139;49.372;8.580;2024-01-30T04:17:58;2.70;99.90
32787;DHT22;19139;49.372;8.580;2024-01-30T04:20:26;2.70;99.90
32787;DHT22;19139;49.372;8.580;2024-01-30T04:22:53;2.60;99.90
32787;DHT22;19139;49.372;8.580;2024-01-30T04:25:19;2.60;99.90
32787;DHT22;19139;49.372;8.580;2024-01-30T04:27:46;2.60;99.90
32787;DHT22;19139;49.372;8.580;2024-01-30T04:30:13;2.50;99.90
32787;DHT22;19139;49.372;8.580;2024-01-30T04:32:40;2.50;99.90
32787;DHT22;19139;49.372;8.580;2024-01-30T04:35:07;2.40;99.90
32787;DHT22;19139;49.372;8.580;2024-01-30T04:37:37;2.40;99.90
32787;DHT22;19139;49.372;8.580;2024-01-30T04:40:05;2.40;99.90
32787;DHT22;19139;49.372;8.580;2024-01-30T04:42:32;2.40;99.90
32787;DHT22;19139;49.372;8.580;2024-01-30T04:44:58;2.30;99.90
32787;DHT22;19139;49.372;8.580;2024-01-30T04:47:25;2.30;99.90
32787;DHT22;19139;49.372;8.580;2024-01-30T04:49:52;2.30;99.90
32787;DHT22;19139;49.372;8.580;2024-01-30T04:52:19;2.20;99.90
32787;DHT22;19139;49.372;8.580;2024-01-30T04:54:47;2.30;99.90
32787;DHT22;19139;49.372;8.580;2024-01-30T04:57:14;2.30;99.90
32787;DHT22;19139;49.372;8.580;2024-01-30T04:59:40;2.30;99.90
32787;DHT22;19139;49.372;8.580;2024-01-30T05:02:07;2.30;99.90
32787;DHT22;19139;49.372;8.580;2024-01-30T05:04:34;2.30;99.90
32787;DHT22;19139;49.372;8.580;2024-01-30T05:07:01;2.30;99.90
32787;DHT22;19139;49.372;8.580;2024-01-30T05:09:28;2.30;99.90
32787;DHT22;19139;49.372;8.580;2024-01-30T05:11:55;2.30;99.90
32787;DHT22;19139;49.372;8.580;2024-01-30T05:14:22;2.30;99.90
32787;DHT22;19139;49.372;8.580;2024-01-30T05:16:49;2.30;99.90
32787;DHT22;19139;49.372;8.580;2024-01-30T05:19:16;2.30;99.90
32787;DHT22;19139;49.372;8.580;2024-01-30T05:21:44;2.40;99.90
32787;DHT22;19139;49.372;8.580;2024-01-30T05:24:11;2.40;99.90
32787;DHT22;19139;49.372;8.580;2024-01-30T05:26:37;2.40;99.90
32787;DHT22;19139;49.372;8.580;2024-01-30T05:29:05;2.40;99.90
32787;DHT22;19139;49.372;8.580;2024-01-30T05:31:32;2.40;99.90
32787;DHT22;19139;49.372;8.580;2024-01-30T05:33:59;2.40;99.90
32787;DHT22;19139;49.372;8.580;2024-01-30T05:36:26;2.40;99.90
32787;DHT22;19139;49.372;8.580;2024-01-30T05:38:53;2.40;99.90
32787;DHT22;19139;49.372;8.580;2024-01-30T05:41:20;2.40;99.90
32787;DHT22;19139;49.372;8.580;2024-01-30T05:43:47;2.40;99.90
32787;DHT22;19139;49.372;8.580;2024-01-30T05:46:14;2.40;99.90
32787;DHT22;19139;49.372;8.580;2024-01-30T05:48:41;2.40;99.90
32787;DHT22;19139;49.372;8.580;2024-01-30T05:51:08;2.40;99.90
32787;DHT22;19139;49.372;8.580;2024-01-30T05:53:35;2.40;99.90
32787;DHT22;19139;49.372;8.580;2024-01-30T05:56:02;2.40;99.90
32787;DHT22;19139;49.372;8.580;2024-01-30T05:58:29;2.30;99.90
32787;DHT22;19139;49.372;8.580;2024-01-30T06:00:57;2.30;99.90
32787;DHT22;19139;49.372;8.580;2024-01-30T06:03:25;2.40;99.90
32787;DHT22;19139;49.372;8.580;2024-01-30T06:05:52;2.30;99.90
32787;DHT22;19139;49.372;8.580;2024-01-30T06:08:18;2.30;99.90
32787;DHT22;19139;49.372;8.580;2024-01-30T06:10:45;2.40;99.90
32787;DHT22;19139;49.372;8.580;2024-01-30T06:13:12;2.30;99.90
32787;DHT22;19139;49.372;8.580;2024-01-30T06:15:39;2.40;99.90
32787;DHT22;19139;49.372;8.580;2024-01-30T06:18:06;2.30;99.90
32787;DHT22;19139;49.372;8.580;2024-01-30T06:20:33;2.30;99.90
32787;DHT22;19139;49.372;8.580;2024-01-30T06:23:00;2.40;99.90
32787;DHT22;19139;49.372;8.580;2024-01-30T06:25:26;2.40;99.90
32787;DHT22;19139;49.372;8.580;2024-01-30T06:27:54;2.40;99.90
32787;DHT22;19139;49.372;8.580;2024-01-30T06:30:21;2.50;99.90
32787;DHT22;19139;49.372;8.580;2024-01-30T06:32:48;2.40;99.90
32787;DHT22;19139;49.372;8.580;2024-01-30T06:35:15;2.50;99.90
32787;DHT22;19139;49.372;8.580;2024-01-30T06:37:41;2.60;99.90
32787;DHT22;19139;49.372;8.580;2024-01-30T06:40:08;2.60;99.90
32787;DHT22;19139;49.372;8.580;2024-01-30T06:42:38;2.50;99.90
32787;DHT22;19139;49.372;8.580;2024-01-30T06:45:12;2.60;99.90
32787;DHT22;19139;49.372;8.580;2024-01-30T06:47:38;2.50;99.90
32787;DHT22;19139;49.372;8.580;2024-01-30T06:50:06;2.50;99.90
32787;DHT22;19139;49.372;8.580;2024-01-30T06:52:33;2.50;99.90
32787;DHT22;19139;49.372;8.580;2024-01-30T06:54:59;2.50;99.90
32787;DHT22;19139;49.372;8.580;2024-01-30T06:57:26;2.40;99.90
32787;DHT22;19139;49.372;8.580;2024-01-30T06:59:55;2.40;99.90
32787;DHT22;19139;49.372;8.580;2024-01-30T07:02:21;2.40;99.90
32787;DHT22;19139;49.372;8.580;2024-01-30T07:04:48;2.40;99.90
32787;DHT22;19139;49.372;8.580;2024-01-30T07:07:16;2.40;99.90
32787;DHT22;19139;49.372;8.580;2024-01-30T07:09:43;2.40;99.90
32787;DHT22;19139;49.372;8.580;2024-01-30T07:12:10;2.80;99.90
32787;DHT22;19139;49.372;8.580;2024-01-30T07:14:36;2.90;99.90
32787;DHT22;19139;49.372;8.580;2024-01-30T07:17:03;3.00;99.90
32787;DHT22;19139;49.372;8.580;2024-01-30T07:19:30;3.00;99.90
32787;DHT22;19139;49.372;8.580;2024-01-30T07:21:57;3.10;99.90
32787;DHT22;19139;49.372;8.580;2024-01-30T07:24:24;2.90;99.90
32787;DHT22;19139;49.372;8.580;2024-01-30T07:26:50;3.00;99.90
32787;DHT22;19139;49.372;8.580;2024-01-30T07:29:18;3.00;99.90
32787;DHT22;19139;49.372;8.580;2024-01-30T07:31:45;3.00;99.90
32787;DHT22;19139;49.372;8.580;2024-01-30T07:34:11;3.00;99.90
32787;DHT22;19139;49.372;8.580;2024-01-30T07:36:38;3.00;99.90
32787;DHT22;19139;49.372;8.580;2024-01-30T07:39:05;3.00;99.90
32787;DHT22;19139;49.372;8.580;2024-01-30T07:41:32;3.10;99.90
32787;DHT22;19139;49.372;8.580;2024-01-30T07:43:59;3.20;99.90
32787;DHT22;19139;49.372;8.580;2024-01-30T07:46:26;3.30;99.90
32787;DHT22;19139;49.372;8.580;2024-01-30T07:48:53;3.30;99.90
32787;DHT22;19139;49.372;8.580;2024-01-30T07:51:21;3.40;99.90
32787;DHT22;19139;49.372;8.580;2024-01-30T07:53:51;3.40;99.90
32787;DHT22;19139;49.372;8.580;2024-01-30T07:56:17;3.60;99.90
32787;DHT22;19139;49.372;8.580;2024-01-30T07:58:44;3.60;99.90
32787;DHT22;19139;49.372;8.580;2024-01-30T08:01:11;3.60;99.90
32787;DHT22;19139;49.372;8.580;2024-01-30T08:03:39;3.80;99.90
32787;DHT22;19139;49.372;8.580;2024-01-30T08:06:08;3.90;99.90
32787;DHT22;19139;49.372;8.580;2024-01-30T08:08:34;4.10;99.90
32787;DHT22;19139;49.372;8.580;2024-01-30T08:11:01;4.10;99.90
32787;DHT22;19139;49.372;8.580;2024-01-30T08:13:28;4.10;99.90
32787;DHT22;19139;49.372;8.580;2024-01-30T08:15:55;4.40;99.90
32787;DHT22;19139;49.372;8.580;2024-01-30T08:18:22;4.60;99.90
32787;DHT22;19139;49.372;8.580;2024-01-30T08:20:49;4.60;99.90
32787;DHT22;19139;49.372;8.580;2024-01-30T08:23:15;4.80;99.90
32787;DHT22;19139;49.372;8.580;2024-01-30T08:25:42;4.90;99.90
32787;DHT22;19139;49.372;8.580;2024-01-30T08:28:09;5.10;99.90
32787;DHT22;19139;49.372;8.580;2024-01-30T08:30:36;5.10;99.90
32787;DHT22;19139;49.372;8.580;2024-01-30T08:33:05;5.10;99.90
32787;DHT22;19139;49.372;8.580;2024-01-30T08:35:32;5.20;99.90
32787;DHT22;19139;49.372;8.580;2024-01-30T08:38:00;5.30;99.90
32787;DHT22;19139;49.372;8.580;2024-01-30T08:40:27;5.40;99.90
32787;DHT22;19139;49.372;8.580;2024-01-30T08:42:55;5.40;99.90
32787;DHT22;19139;49.372;8.580;2024-01-30T08:45:22;5.50;99.90
32787;DHT22;19139;49.372;8.580;2024-01-30T08:47:49;5.60;99.90
32787;DHT22;19139;49.372;8.580;2024-01-30T08:50:16;5.70;99.90
32787;DHT22;19139;49.372;8.580;2024-01-30T08:52:43;5.70;99.90
32787;DHT22;19139;49.372;8.580;2024-01-30T08:55:12;5.80;99.90
32787;DHT22;19139;49.372;8.580;2024-01-30T08:57:39;5.90;99.90
32787;DHT22;19139;49.372;8.580;2024-01-30T09:00:05;5.90;99.90
32787;DHT22;19139;49.372;8.580;2024-01-30T09:02:35;5.90;99.90
32787;DHT22;19139;49.372;8.580;2024-01-30T09:05:02;6.00;99.90
32787;DHT22;19139;49.372;8.580;2024-01-30T09:07:29;6.00;99.90
32787;DHT22;19139;49.372;8.580;2024-01-30T09:09:56;6.10;99.90
32787;DHT22;19139;49.372;8.580;2024-01-30T09:12:23;6.10;99.90
32787;DHT22;19139;49.372;8.580;2024-01-30T09:14:50;6.10;99.90
32787;DHT22;19139;49.372;8.580;2024-01-30T09:17:17;6.20;99.90
32787;DHT22;19139;49.372;8.580;2024-01-30T09:19:43;6.30;99.90
32787;DHT22;19139;49.372;8.580;2024-01-30T09:22:10;6.40;99.90
32787;DHT22;19139;49.372;8.580;2024-01-30T09:24:37;6.40;99.90
32787;DHT22;19139;49.372;8.580;2024-01-30T09:27:04;6.40;99.90
32787;DHT22;19139;49.372;8.580;2024-01-30T09:29:31;6.40;99.90
32787;DHT22;19139;49.372;8.580;2024-01-30T09:32:00;6.50;99.90
32787;DHT22;19139;49.372;8.580;2024-01-30T09:34:27;6.50;99.90
32787;DHT22;19139;49.372;8.580;2024-01-30T09:36:54;6.60;99.90
32787;DHT22;19139;49.372;8.580;2024-01-30T09:39:21;6.60;99.90
32787;DHT22;19139;49.372;8.580;2024-01-30T09:42:10;6.60;99.90
32787;DHT22;19139;49.372;8.580;2024-01-30T09:44:38;6.70;99.90
32787;DHT22;19139;49.372;8.580;2024-01-30T09:47:08;6.70;99.90
32787;DHT22;19139;49.372;8.580;2024-01-30T09:49:35;6.80;99.90
32787;DHT22;19139;49.372;8.580;2024-01-30T09:52:04;6.90;99.90
32787;DHT22;19139;49.372;8.580;2024-01-30T09:54:32;7.00;99.90
32787;DHT22;19139;49.372;8.580;2024-01-30T09:57:03;7.00;99.90
32787;DHT22;19139;49.372;8.580;2024-01-30T09:59:29;7.10;99.90
32787;DHT22;19139;49.372;8.580;2024-01-30T10:01:57;7.20;99.90
32787;DHT22;19139;49.372;8.580;2024-01-30T10:04:24;7.30;99.90
32787;DHT22;19139;49.372;8.580;2024-01-30T10:06:51;7.40;99.90
32787;DHT22;19139;49.372;8.580;2024-01-30T10:09:18;7.40;99.90
32787;DHT22;19139;49.372;8.580;2024-01-30T10:11:45;7.50;99.90
32787;DHT22;19139;49.372;8.580;2024-01-30T10:14:12;7.50;99.90
32787;DHT22;19139;49.372;8.580;2024-01-30T10:16:39;7.60;99.90
32787;DHT22;19139;49.372;8.580;2024-01-30T10:19:06;7.60;99.90
32787;DHT22;19139;49.372;8.580;2024-01-30T10:21:32;7.60;99.90
32787;DHT22;19139;49.372;8.580;2024-01-30T10:23:59;7.60;99.90
32787;DHT22;19139;49.372;8.580;2024-01-30T10:26:26;7.70;99.90
32787;DHT22;19139;49.372;8.580;2024-01-30T10:28:53;7.90;99.90
32787;DHT22;19139;49.372;8.580;2024-01-30T10:31:19;7.90;99.90
32787;DHT22;19139;49.372;8.580;2024-01-30T10:33:46;8.00;99.90
32787;DHT22;19139;49.372;8.580;2024-01-30T10:36:14;8.20;99.90
32787;DHT22;19139;49.372;8.580;2024-01-30T10:38:47;8.20;99.90
32787;DHT22;19139;49.372;8.580;2024-01-30T10:41:19;8.30;99.90
32787;DHT22;19139;49.372;8.580;2024-01-30T10:44:08;8.30;99.90
32787;DHT22;19139;49.372;8.580;2024-01-30T10:46:36;8.30;99.90
32787;DHT22;19139;49.372;8.580;2024-01-30T10:49:05;8.30;99.90
32787;DHT22;19139;49.372;8.580;2024-01-30T10:51:34;8.30;99.90
32787;DHT22;19139;49.372;8.580;2024-01-30T10:54:03;8.40;99.90
32787;DHT22;19139;49.372;8.580;2024-01-30T10:56:32;8.50;99.90
32787;DHT22;19139;49.372;8.580;2024-01-30T10:59:00;8.50;99.90
32787;DHT22;19139;49.372;8.580;2024-01-30T11:01:28;8.60;99.90
32787;DHT22;19139;49.372;8.580;2024-01-30T11:03:55;8.60;99.90
32787;DHT22;19139;49.372;8.580;2024-01-30T11:06:25;8.60;99.90
32787;DHT22;19139;49.372;8.580;2024-01-30T11:09:05;8.70;99.90
32787;DHT22;19139;49.372;8.580;2024-01-30T11:11:56;8.80;99.90
32787;DHT22;19139;49.372;8.580;2024-01-30T11:14:29;8.80;99.90
32787;DHT22;19139;49.372;8.580;2024-01-30T11:16:59;9.00;99.90
32787;DHT22;19139;49.372;8.580;2024-01-30T11:19:27;9.20;99.90
32787;DHT22;19139;49.372;8.580;2024-01-30T11:21:55;9.40;99.90
32787;DHT22;19139;49.372;8.580;2024-01-30T11:24:24;9.50;99.90
32787;DHT22;19139;49.372;8.580;2024-01-30T11:26:57;9.60;99.90
32787;DHT22;19139;49.372;8.580;2024-01-30T11:29:27;9.60;99.90
32787;DHT22;19139;49.372;8.580;2024-01-30T11:31:58;9.60;99.90
32787;DHT22;19139;49.372;8.580;2024-01-30T11:34:25;9.60;99.90
32787;DHT22;19139;49.372;8.580;2024-01-30T11:36:55;9.70;99.90
32787;DHT22;19139;49.372;8.580;2024-01-30T11:39:26;9.70;99.90
32787;DHT22;19139;49.372;8.580;2024-01-30T11:41:54;9.70;99.90
32787;DHT22;19139;49.372;8.580;2024-01-30T11:44:21;9.80;99.90
32787;DHT22;19139;49.372;8.580;2024-01-30T11:46:49;9.70;99.90
32787;DHT22;19139;49.372;8.580;2024-01-30T11:49:16;9.80;99.90
32787;DHT22;19139;49.372;8.580;2024-01-30T11:51:47;9.90;99.90
32787;DHT22;19139;49.372;8.580;2024-01-30T11:54:15;9.90;99.90
32787;DHT22;19139;49.372;8.580;2024-01-30T11:56:43;9.90;99.90
32787;DHT22;19139;49.372;8.580;2024-01-30T11:59:09;9.90;99.90
32787;DHT22;19139;49.372;8.580;2024-01-30T12:01:36;10.00;99.90
32787;DHT22;19139;49.372;8.580;2024-01-30T12:04:04;10.00;99.90
32787;DHT22;19139;49.372;8.580;2024-01-30T12:06:35;10.10;99.90
32787;DHT22;19139;49.372;8.580;2024-01-30T12:09:03;10.10;99.90
32787;DHT22;19139;49.372;8.580;2024-01-30T12:11:46;10.20;99.90
32787;DHT22;19139;49.372;8.580;2024-01-30T12:14:13;10.20;99.90
32787;DHT22;19139;49.372;8.580;2024-01-30T12:16:40;10.20;99.90
32787;DHT22;19139;49.372;8.580;2024-01-30T12:19:10;10.40;99.90
32787;DHT22;19139;49.372;8.580;2024-01-30T12:21:38;10.50;99.90
32787;DHT22;19139;49.372;8.580;2024-01-30T12:24:05;10.60;99.90
32787;DHT22;19139;49.372;8.580;2024-01-30T12:26:34;10.80;99.90
32787;DHT22;19139;49.372;8.580;2024-01-30T12:29:04;11.00;99.90
32787;DHT22;19139;49.372;8.580;2024-01-30T12:31:32;11.20;99.90
32787;DHT22;19139;49.372;8.580;2024-01-30T12:34:00;11.30;99.90
32787;DHT22;19139;49.372;8.580;2024-01-30T12:36:28;11.30;99.90
32787;DHT22;19139;49.372;8.580;2024-01-30T12:38:57;11.40;99.90
32787;DHT22;19139;49.372;8.580;2024-01-30T12:41:25;11.40;99.90
32787;DHT22;19139;49.372;8.580;2024-01-30T12:43:56;11.50;99.90
32787;DHT22;19139;49.372;8.580;2024-01-30T12:46:29;11.70;99.90
32787;DHT22;19139;49.372;8.580;2024-01-30T12:48:56;11.60;99.90
32787;DHT22;19139;49.372;8.580;2024-01-30T12:51:23;11.90;99.90
32787;DHT22;19139;49.372;8.580;2024-01-30T12:53:50;11.90;99.90
32787;DHT22;19139;49.372;8.580;2024-01-30T12:56:17;12.00;99.90
32787;DHT22;19139;49.372;8.580;2024-01-30T12:58:44;11.90;99.90
32787;DHT22;19139;49.372;8.580;2024-01-30T13:01:15;11.90;99.90
32787;DHT22;19139;49.372;8.580;2024-01-30T13:03:42;12.00;99.90
32787;DHT22;19139;49.372;8.580;2024-01-30T13:06:09;11.70;99.90
32787;DHT22;19139;49.372;8.580;2024-01-30T13:08:36;11.60;99.90
32787;DHT22;19139;49.372;8.580;2024-01-30T13:11:03;11.70;99.90
32787;DHT22;19139;49.372;8.580;2024-01-30T13:13:30;11.70;99.90
32787;DHT22;19139;49.372;8.580;2024-01-30T13:15:57;11.70;99.90
32787;DHT22;19139;49.372;8.580;2024-01-30T13:18:25;11.90;99.90
32787;DHT22;19139;49.372;8.580;2024-01-30T13:20:52;12.00;99.90
32787;DHT22;19139;49.372;8.580;2024-01-30T13:23:19;12.00;99.90
32787;DHT22;19139;49.372;8.580;2024-01-30T13:25:46;12.10;99.90
32787;DHT22;19139;49.372;8.580;2024-01-30T13:28:12;12.30;99.90
32787;DHT22;19139;49.372;8.580;2024-01-30T13:30:39;12.50;99.90
32787;DHT22;19139;49.372;8.580;2024-01-30T13:33:06;12.50;99.90
32787;DHT22;19139;49.372;8.580;2024-01-30T13:35:33;12.70;99.90
32787;DHT22;19139;49.372;8.580;2024-01-30T13:38:00;12.70;99.90
32787;DHT22;19139;49.372;8.580;2024-01-30T13:40:27;12.80;99.90
32787;DHT22;19139;49.372;8.580;2024-01-30T13:42:53;12.80;99.90
32787;DHT22;19139;49.372;8.580;2024-01-30T13:45:20;12.90;99.90
32787;DHT22;19139;49.372;8.580;2024-01-30T13:47:49;12.80;99.90
32787;DHT22;19139;49.372;8.580;2024-01-30T13:50:16;12.60;99.90
32787;DHT22;19139;49.372;8.580;2024-01-30T13:52:43;12.40;99.90
32787;DHT22;19139;49.372;8.580;2024-01-30T13:55:11;12.20;99.90
32787;DHT22;19139;49.372;8.580;2024-01-30T13:57:39;12.40;99.90
32787;DHT22;19139;49.372;8.580;2024-01-30T14:00:06;12.30;99.90
32787;DHT22;19139;49.372;8.580;2024-01-30T14:02:34;12.30;99.90
32787;DHT22;19139;49.372;8.580;2024-01-30T14:05:00;12.20;99.90
32787;DHT22;19139;49.372;8.580;2024-01-30T14:07:27;12.10;99.90
32787;DHT22;19139;49.372;8.580;2024-01-30T14:09:54;12.10;99.90
32787;DHT22;19139;49.372;8.580;2024-01-30T14:12:21;12.10;99.90
32787;DHT22;19139;49.372;8.580;2024-01-30T14:14:48;12.10;99.90
32787;DHT22;19139;49.372;8.580;2024-01-30T14:17:15;12.00;99.90
32787;DHT22;19139;49.372;8.580;2024-01-30T14:19:42;11.90;99.90
32787;DHT22;19139;49.372;8.580;2024-01-30T14:22:09;11.90;99.90
32787;DHT22;19139;49.372;8.580;2024-01-30T14:24:35;11.90;99.90
32787;DHT22;19139;49.372;8.580;2024-01-30T14:27:03;11.90;99.90
32787;DHT22;19139;49.372;8.580;2024-01-30T14:29:30;11.80;99.90
32787;DHT22;19139;49.372;8.580;2024-01-30T14:31:57;11.70;99.90
32787;DHT22;19139;49.372;8.580;2024-01-30T14:34:24;11.70;99.90
32787;DHT22;19139;49.372;8.580;2024-01-30T14:36:51;11.70;99.90
32787;DHT22;19139;49.372;8.580;2024-01-30T14:39:18;11.70;99.90
32787;DHT22;19139;49.372;8.580;2024-01-30T14:41:45;11.60;99.90
32787;DHT22;19139;49.372;8.580;2024-01-30T14:44:12;11.60;99.90
32787;DHT22;19139;49.372;8.580;2024-01-30T14:46:38;11.50;99.90
32787;DHT22;19139;49.372;8.580;2024-01-30T14:49:05;11.50;99.90
32787;DHT22;19139;49.372;8.580;2024-01-30T14:51:33;11.50;99.90
32787;DHT22;19139;49.372;8.580;2024-01-30T14:54:00;11.40;99.90
32787;DHT22;19139;49.372;8.580;2024-01-30T14:56:28;11.50;99.90
32787;DHT22;19139;49.372;8.580;2024-01-30T14:58:55;11.40;99.90
32787;DHT22;19139;49.372;8.580;2024-01-30T15:01:22;11.40;99.90
32787;DHT22;19139;49.372;8.580;2024-01-30T15:03:48;11.40;99.90
32787;DHT22;19139;49.372;8.580;2024-01-30T15:06:18;11.40;99.90
32787;DHT22;19139;49.372;8.580;2024-01-30T15:08:45;11.30;99.90
32787;DHT22;19139;49.372;8.580;2024-01-30T15:11:11;11.30;99.90
32787;DHT22;19139;49.372;8.580;2024-01-30T15:13:39;11.30;99.90
32787;DHT22;19139;49.372;8.580;2024-01-30T15:16:05;11.20;99.90
32787;DHT22;19139;49.372;8.580;2024-01-30T15:18:33;11.20;99.90
32787;DHT22;19139;49.372;8.580;2024-01-30T15:21:00;11.20;99.90
32787;DHT22;19139;49.372;8.580;2024-01-30T15:23:26;11.10;99.90
32787;DHT22;19139;49.372;8.580;2024-01-30T15:25:53;11.10;99.90
32787;DHT22;19139;49.372;8.580;2024-01-30T15:28:33;11.10;99.90
32787;DHT22;19139;49.372;8.580;2024-01-30T15:31:00;11.00;99.90
32787;DHT22;19139;49.372;8.580;2024-01-30T15:33:27;11.10;99.90
32787;DHT22;19139;49.372;8.580;2024-01-30T15:35:55;11.00;99.90
32787;DHT22;19139;49.372;8.580;2024-01-30T15:38:22;10.90;99.90
32787;DHT22;19139;49.372;8.580;2024-01-30T15:40:48;10.80;99.90
32787;DHT22;19139;49.372;8.580;2024-01-30T15:43:15;10.80;99.90